sensor_id;sensor_type;location;lat;lon;timestamp;P1;durP1;ratioP1;P2;durP2;ratioP2
3601;SDS011;1815;50.950;6.920;2024-03-08T00:00:08;15.98;;;13.90;;
3601;SDS011;1815;50.950;6.920;2024-03-08T00:02:47;15.35;;;12.73;;
3601;SDS011;1815;50.950;6.920;2024-03-08T00:05:15;16.83;;;12.30;;
3601;SDS011;1815;50.950;6.920;2024-03-08T00:07:43;15.75;;;12.18;;
3601;SDS011;1815;50.950;6.920;2024-03-08T00:10:09;13.80;;;11.67;;
3601;SDS011;1815;50.950;6.920;2024-03-08T00:12:40;15.35;;;12.52;;
3601;SDS011;1815;50.950;6.920;2024-03-08T00:15:10;14.15;;;12.50;;
3601;SDS011;1815;50.950;6.920;2024-03-08T00:17:36;15.15;;;13.20;;
3601;SDS011;1815;50.950;6.920;2024-03-08T00:20:03;18.45;;;12.38;;
3601;SDS011;1815;50.950;6.920;2024-03-08T00:22:33;15.00;;;12.65;;
3601;SDS011;1815;50.950;6.920;2024-03-08T00:25:00;14.73;;;11.88;;
3601;SDS011;1815;50.950;6.920;2024-03-08T00:27:26;17.85;;;13.02;;
3601;SDS011;1815;50.950;6.920;2024-03-08T00:29:52;15.30;;;11.80;;
3601;SDS011;1815;50.950;6.920;2024-03-08T00:32:18;16.10;;;12.63;;
3601;SDS011;1815;50.950;6.920;2024-03-08T00:34:43;15.50;;;12.67;;
3601;SDS011;1815;50.950;6.920;2024-03-08T00:37:09;14.37;;;12.47;;
3601;SDS011;1815;50.950;6.920;2024-03-08T00:39:35;17.47;;;13.50;;
3601;SDS011;1815;50.950;6.920;2024-03-08T00:42:01;14.97;;;12.80;;
3601;SDS011;1815;50.950;6.920;2024-03-08T00:44:26;19.90;;;12.70;;
3601;SDS011;1815;50.950;6.920;2024-03-08T00:46:52;17.23;;;13.60;;
3601;SDS011;1815;50.950;6.920;2024-03-08T00:49:18;16.60;;;13.30;;
3601;SDS011;1815;50.950;6.920;2024-03-08T00:51:43;14.53;;;12.73;;
3601;SDS011;1815;50.950;6.920;2024-03-08T00:54:09;13.27;;;10.60;;
3601;SDS011;1815;50.950;6.920;2024-03-08T00:56:34;17.93;;;13.20;;
3601;SDS011;1815;50.950;6.920;2024-03-08T00:59:00;17.43;;;13.10;;
3601;SDS011;1815;50.950;6.920;2024-03-08T01:01:27;14.68;;;12.02;;
3601;SDS011;1815;50.950;6.920;2024-03-08T01:03:53;16.13;;;13.25;;
3601;SDS011;1815;50.950;6.920;2024-03-08T01:06:19;14.37;;;12.50;;
3601;SDS011;1815;50.950;6.920;2024-03-08T01:08:45;15.80;;;13.27;;
3601;SDS011;1815;50.950;6.920;2024-03-08T01:11:12;16.07;;;13.20;;
3601;SDS011;1815;50.950;6.920;2024-03-08T01:13:39;20.95;;;13.68;;
3601;SDS011;1815;50.950;6.920;2024-03-08T01:16:04;20.07;;;14.80;;
3601;SDS011;1815;50.950;6.920;2024-03-08T01:18:31;16.05;;;13.10;;
3601;SDS011;1815;50.950;6.920;2024-03-08T01:20:57;15.00;;;12.75;;
3601;SDS011;1815;50.950;6.920;2024-03-08T01:23:22;20.40;;;14.17;;
3601;SDS011;1815;50.950;6.920;2024-03-08T01:25:49;14.98;;;12.35;;
3601;SDS011;1815;50.950;6.920;2024-03-08T01:28:22;16.60;;;13.52;;
3601;SDS011;1815;50.950;6.920;2024-03-08T01:30:49;17.35;;;14.40;;
3601;SDS011;1815;50.950;6.920;2024-03-08T01:33:20;20.20;;;15.65;;
3601;SDS011;1815;50.950;6.920;2024-03-08T01:35:51;19.00;;;14.45;;
3601;SDS011;1815;50.950;6.920;2024-03-08T01:38:17;17.60;;;13.75;;
3601;SDS011;1815;50.950;6.920;2024-03-08T01:40:43;18.33;;;14.60;;
3601;SDS011;1815;50.950;6.920;2024-03-08T01:43:43;16.70;;;14.10;;
3601;SDS011;1815;50.950;6.920;2024-03-08T01:46:02;17.35;;;14.10;;
3601;SDS011;1815;50.950;6.920;2024-03-08T01:48:28;18.55;;;14.02;;
3601;SDS011;1815;50.950;6.920;2024-03-08T01:50:55;16.63;;;13.70;;
3601;SDS011;1815;50.950;6.920;2024-03-08T01:53:22;15.13;;;12.00;;
3601;SDS011;1815;50.950;6.920;2024-03-08T01:55:50;19.45;;;14.48;;
3601;SDS011;1815;50.950;6.920;2024-03-08T01:58:19;16.30;;;14.07;;
3601;SDS011;1815;50.950;6.920;2024-03-08T02:00:47;15.63;;;13.20;;
3601;SDS011;1815;50.950;6.920;2024-03-08T02:03:16;18.08;;;14.18;;
3601;SDS011;1815;50.950;6.920;2024-03-08T02:05:43;16.35;;;12.68;;
3601;SDS011;1815;50.950;6.920;2024-03-08T02:08:09;17.10;;;12.90;;
3601;SDS011;1815;50.950;6.920;2024-03-08T02:10:43;15.75;;;12.90;;
3601;SDS011;1815;50.950;6.920;2024-03-08T02:13:10;18.73;;;10.98;;
3601;SDS011;1815;50.950;6.920;2024-03-08T02:15:52;18.40;;;12.10;;
3601;SDS011;1815;50.950;6.920;2024-03-08T02:18:22;15.35;;;11.48;;
3601;SDS011;1815;50.950;6.920;2024-03-08T02:21:01;15.02;;;12.32;;
3601;SDS011;1815;50.950;6.920;2024-03-08T02:23:28;18.42;;;13.18;;
3601;SDS011;1815;50.950;6.920;2024-03-08T02:25:55;16.15;;;11.90;;
3601;SDS011;1815;50.950;6.920;2024-03-08T02:28:22;18.42;;;12.77;;
3601;SDS011;1815;50.950;6.920;2024-03-08T02:30:50;16.10;;;12.32;;
3601;SDS011;1815;50.950;6.920;2024-03-08T02:33:16;22.77;;;14.05;;
3601;SDS011;1815;50.950;6.920;2024-03-08T02:35:46;19.17;;;14.40;;
3601;SDS011;1815;50.950;6.920;2024-03-08T02:38:16;17.50;;;12.60;;
3601;SDS011;1815;50.950;6.920;2024-03-08T02:40:48;15.93;;;13.07;;
3601;SDS011;1815;50.950;6.920;2024-03-08T02:43:17;14.88;;;10.65;;
3601;SDS011;1815;50.950;6.920;2024-03-08T02:45:44;20.25;;;14.25;;
3601;SDS011;1815;50.950;6.920;2024-03-08T02:48:10;17.95;;;14.60;;
3601;SDS011;1815;50.950;6.920;2024-03-08T02:50:37;17.30;;;13.57;;
3601;SDS011;1815;50.950;6.920;2024-03-08T02:53:05;16.00;;;12.82;;
3601;SDS011;1815;50.950;6.920;2024-03-08T02:55:32;19.80;;;15.27;;
3601;SDS011;1815;50.950;6.920;2024-03-08T02:58:01;15.70;;;13.00;;
3601;SDS011;1815;50.950;6.920;2024-03-08T03:00:28;16.90;;;13.38;;
3601;SDS011;1815;50.950;6.920;2024-03-08T03:02:56;16.08;;;14.00;;
3601;SDS011;1815;50.950;6.920;2024-03-08T03:05:25;16.08;;;14.27;;
3601;SDS011;1815;50.950;6.920;2024-03-08T03:07:51;17.00;;;12.45;;
3601;SDS011;1815;50.950;6.920;2024-03-08T03:10:17;18.70;;;12.98;;
3601;SDS011;1815;50.950;6.920;2024-03-08T03:12:43;21.60;;;15.80;;
3601;SDS011;1815;50.950;6.920;2024-03-08T03:15:11;18.10;;;14.43;;
3601;SDS011;1815;50.950;6.920;2024-03-08T03:17:37;17.88;;;13.60;;
3601;SDS011;1815;50.950;6.920;2024-03-08T03:20:06;19.38;;;13.85;;
3601;SDS011;1815;50.950;6.920;2024-03-08T03:22:38;17.65;;;13.65;;
3601;SDS011;1815;50.950;6.920;2024-03-08T03:25:04;14.52;;;12.23;;
3601;SDS011;1815;50.950;6.920;2024-03-08T03:27:31;17.75;;;13.80;;
3601;SDS011;1815;50.950;6.920;2024-03-08T03:29:57;22.98;;;14.95;;
3601;SDS011;1815;50.950;6.920;2024-03-08T03:32:23;17.10;;;13.83;;
3601;SDS011;1815;50.950;6.920;2024-03-08T03:34:49;20.60;;;15.30;;
3601;SDS011;1815;50.950;6.920;2024-03-08T03:37:21;15.43;;;13.18;;
3601;SDS011;1815;50.950;6.920;2024-03-08T03:39:46;19.38;;;13.60;;
3601;SDS011;1815;50.950;6.920;2024-03-08T03:42:17;16.70;;;13.23;;
3601;SDS011;1815;50.950;6.920;2024-03-08T03:44:44;20.77;;;16.00;;
3601;SDS011;1815;50.950;6.920;2024-03-08T03:47:11;17.35;;;12.63;;
3601;SDS011;1815;50.950;6.920;2024-03-08T03:49:36;17.30;;;13.10;;
3601;SDS011;1815;50.950;6.920;2024-03-08T03:52:02;20.13;;;14.00;;
3601;SDS011;1815;50.950;6.920;2024-03-08T03:54:29;14.70;;;12.07;;
3601;SDS011;1815;50.950;6.920;2024-03-08T03:56:56;17.17;;;14.10;;
3601;SDS011;1815;50.950;6.920;2024-03-08T03:59:21;16.27;;;12.80;;
3601;SDS011;1815;50.950;6.920;2024-03-08T04:01:47;20.00;;;14.97;;
3601;SDS011;1815;50.950;6.920;2024-03-08T04:04:14;21.98;;;16.02;;
3601;SDS011;1815;50.950;6.920;2024-03-08T04:06:41;18.52;;;14.05;;
3601;SDS011;1815;50.950;6.920;2024-03-08T04:09:07;17.08;;;13.77;;
3601;SDS011;1815;50.950;6.920;2024-03-08T04:11:33;18.60;;;13.50;;
3601;SDS011;1815;50.950;6.920;2024-03-08T04:13:59;18.42;;;13.85;;
3601;SDS011;1815;50.950;6.920;2024-03-08T04:16:25;18.70;;;15.10;;
3601;SDS011;1815;50.950;6.920;2024-03-08T04:18:51;17.50;;;14.65;;
3601;SDS011;1815;50.950;6.920;2024-03-08T04:21:17;14.65;;;11.88;;
3601;SDS011;1815;50.950;6.920;2024-03-08T04:23:44;23.50;;;15.63;;
3601;SDS011;1815;50.950;6.920;2024-03-08T04:26:10;21.63;;;16.10;;
3601;SDS011;1815;50.950;6.920;2024-03-08T04:28:36;21.02;;;15.35;;
3601;SDS011;1815;50.950;6.920;2024-03-08T04:31:05;20.73;;;15.68;;
3601;SDS011;1815;50.950;6.920;2024-03-08T04:33:31;15.63;;;13.27;;
3601;SDS011;1815;50.950;6.920;2024-03-08T04:35:57;20.15;;;12.63;;
3601;SDS011;1815;50.950;6.920;2024-03-08T04:38:23;15.90;;;13.47;;
3601;SDS011;1815;50.950;6.920;2024-03-08T04:40:50;18.52;;;13.80;;
3601;SDS011;1815;50.950;6.920;2024-03-08T04:43:15;16.20;;;11.30;;
3601;SDS011;1815;50.950;6.920;2024-03-08T04:45:43;23.80;;;15.70;;
3601;SDS011;1815;50.950;6.920;2024-03-08T04:48:09;16.90;;;15.15;;
3601;SDS011;1815;50.950;6.920;2024-03-08T04:50:36;18.05;;;13.90;;
3601;SDS011;1815;50.950;6.920;2024-03-08T04:53:03;18.80;;;13.68;;
3601;SDS011;1815;50.950;6.920;2024-03-08T04:55:31;19.27;;;14.65;;
3601;SDS011;1815;50.950;6.920;2024-03-08T04:57:56;17.10;;;12.67;;
3601;SDS011;1815;50.950;6.920;2024-03-08T05:00:22;18.93;;;14.00;;
3601;SDS011;1815;50.950;6.920;2024-03-08T05:02:48;16.87;;;13.10;;
3601;SDS011;1815;50.950;6.920;2024-03-08T05:05:13;20.90;;;14.20;;
3601;SDS011;1815;50.950;6.920;2024-03-08T05:07:40;17.65;;;14.38;;
3601;SDS011;1815;50.950;6.920;2024-03-08T05:10:06;19.53;;;13.50;;
3601;SDS011;1815;50.950;6.920;2024-03-08T05:12:35;14.68;;;11.98;;
3601;SDS011;1815;50.950;6.920;2024-03-08T05:15:01;15.48;;;13.00;;
3601;SDS011;1815;50.950;6.920;2024-03-08T05:17:27;18.00;;;12.13;;
3601;SDS011;1815;50.950;6.920;2024-03-08T05:19:53;17.40;;;13.83;;
3601;SDS011;1815;50.950;6.920;2024-03-08T05:22:18;17.03;;;13.13;;
3601;SDS011;1815;50.950;6.920;2024-03-08T05:24:44;17.70;;;14.80;;
3601;SDS011;1815;50.950;6.920;2024-03-08T05:27:10;15.53;;;12.90;;
3601;SDS011;1815;50.950;6.920;2024-03-08T05:29:36;15.60;;;12.70;;
3601;SDS011;1815;50.950;6.920;2024-03-08T05:32:02;18.38;;;13.48;;
3601;SDS011;1815;50.950;6.920;2024-03-08T05:34:29;15.10;;;12.38;;
3601;SDS011;1815;50.950;6.920;2024-03-08T05:36:55;19.48;;;13.88;;
3601;SDS011;1815;50.950;6.920;2024-03-08T05:39:23;18.52;;;13.07;;
3601;SDS011;1815;50.950;6.920;2024-03-08T05:41:50;17.48;;;13.57;;
3601;SDS011;1815;50.950;6.920;2024-03-08T05:44:16;18.02;;;13.88;;
3601;SDS011;1815;50.950;6.920;2024-03-08T05:46:44;19.23;;;15.15;;
3601;SDS011;1815;50.950;6.920;2024-03-08T05:49:11;15.98;;;12.82;;
3601;SDS011;1815;50.950;6.920;2024-03-08T05:51:38;18.15;;;14.07;;
3601;SDS011;1815;50.950;6.920;2024-03-08T05:54:05;14.65;;;12.25;;
3601;SDS011;1815;50.950;6.920;2024-03-08T05:56:35;26.05;;;16.17;;
3601;SDS011;1815;50.950;6.920;2024-03-08T05:59:01;20.88;;;15.27;;
3601;SDS011;1815;50.950;6.920;2024-03-08T06:01:27;17.00;;;12.57;;
3601;SDS011;1815;50.950;6.920;2024-03-08T06:03:53;18.73;;;14.52;;
3601;SDS011;1815;50.950;6.920;2024-03-08T06:06:21;19.20;;;14.40;;
3601;SDS011;1815;50.950;6.920;2024-03-08T06:08:48;19.42;;;13.95;;
3601;SDS011;1815;50.950;6.920;2024-03-08T06:11:14;21.00;;;14.52;;
3601;SDS011;1815;50.950;6.920;2024-03-08T06:13:42;19.90;;;15.10;;
3601;SDS011;1815;50.950;6.920;2024-03-08T06:16:08;19.67;;;15.15;;
3601;SDS011;1815;50.950;6.920;2024-03-08T06:18:34;20.90;;;15.82;;
3601;SDS011;1815;50.950;6.920;2024-03-08T06:21:04;23.40;;;15.10;;
3601;SDS011;1815;50.950;6.920;2024-03-08T06:23:33;17.77;;;14.73;;
3601;SDS011;1815;50.950;6.920;2024-03-08T06:26:03;17.25;;;14.70;;
3601;SDS011;1815;50.950;6.920;2024-03-08T06:28:32;16.73;;;13.93;;
3601;SDS011;1815;50.950;6.920;2024-03-08T06:30:59;21.35;;;16.65;;
3601;SDS011;1815;50.950;6.920;2024-03-08T06:33:26;21.38;;;15.57;;
3601;SDS011;1815;50.950;6.920;2024-03-08T06:35:52;17.40;;;13.57;;
3601;SDS011;1815;50.950;6.920;2024-03-08T06:38:19;16.55;;;13.98;;
3601;SDS011;1815;50.950;6.920;2024-03-08T06:40:45;20.45;;;15.20;;
3601;SDS011;1815;50.950;6.920;2024-03-08T06:43:14;19.20;;;14.50;;
3601;SDS011;1815;50.950;6.920;2024-03-08T06:45:42;25.83;;;17.55;;
3601;SDS011;1815;50.950;6.920;2024-03-08T06:48:16;20.20;;;15.20;;
3601;SDS011;1815;50.950;6.920;2024-03-08T06:50:46;19.95;;;16.13;;
3601;SDS011;1815;50.950;6.920;2024-03-08T06:53:12;14.90;;;11.48;;
3601;SDS011;1815;50.950;6.920;2024-03-08T06:55:41;22.95;;;17.58;;
3601;SDS011;1815;50.950;6.920;2024-03-08T06:58:09;20.83;;;15.40;;
3601;SDS011;1815;50.950;6.920;2024-03-08T07:00:36;20.77;;;15.55;;
3601;SDS011;1815;50.950;6.920;2024-03-08T07:03:02;22.95;;;16.50;;
3601;SDS011;1815;50.950;6.920;2024-03-08T07:05:29;20.98;;;16.17;;
3601;SDS011;1815;50.950;6.920;2024-03-08T07:08:04;20.20;;;16.10;;
3601;SDS011;1815;50.950;6.920;2024-03-08T07:10:31;19.63;;;15.10;;
3601;SDS011;1815;50.950;6.920;2024-03-08T07:12:57;19.30;;;15.03;;
3601;SDS011;1815;50.950;6.920;2024-03-08T07:15:23;18.20;;;12.93;;
3601;SDS011;1815;50.950;6.920;2024-03-08T07:17:49;22.50;;;16.37;;
3601;SDS011;1815;50.950;6.920;2024-03-08T07:20:17;21.17;;;15.80;;
3601;SDS011;1815;50.950;6.920;2024-03-08T07:22:47;21.50;;;15.25;;
3601;SDS011;1815;50.950;6.920;2024-03-08T07:25:16;19.65;;;15.70;;
3601;SDS011;1815;50.950;6.920;2024-03-08T07:27:49;22.95;;;17.55;;
3601;SDS011;1815;50.950;6.920;2024-03-08T07:30:22;22.83;;;15.75;;
3601;SDS011;1815;50.950;6.920;2024-03-08T07:33:08;23.15;;;15.95;;
3601;SDS011;1815;50.950;6.920;2024-03-08T07:35:39;23.05;;;17.38;;
3601;SDS011;1815;50.950;6.920;2024-03-08T07:38:06;25.55;;;18.13;;
3601;SDS011;1815;50.950;6.920;2024-03-08T07:40:39;21.48;;;17.02;;
3601;SDS011;1815;50.950;6.920;2024-03-08T07:43:12;23.55;;;15.10;;
3601;SDS011;1815;50.950;6.920;2024-03-08T07:45:38;20.08;;;14.95;;
3601;SDS011;1815;50.950;6.920;2024-03-08T07:48:04;23.80;;;16.77;;
3601;SDS011;1815;50.950;6.920;2024-03-08T07:50:38;22.20;;;17.70;;
3601;SDS011;1815;50.950;6.920;2024-03-08T07:53:05;24.98;;;16.48;;
3601;SDS011;1815;50.950;6.920;2024-03-08T07:55:32;20.67;;;15.27;;
3601;SDS011;1815;50.950;6.920;2024-03-08T07:57:58;23.73;;;18.10;;
3601;SDS011;1815;50.950;6.920;2024-03-08T08:00:25;21.95;;;18.45;;
3601;SDS011;1815;50.950;6.920;2024-03-08T08:02:53;24.02;;;17.10;;
3601;SDS011;1815;50.950;6.920;2024-03-08T08:05:19;22.80;;;17.40;;
3601;SDS011;1815;50.950;6.920;2024-03-08T08:07:45;22.00;;;18.00;;
3601;SDS011;1815;50.950;6.920;2024-03-08T08:10:12;22.80;;;18.13;;
3601;SDS011;1815;50.950;6.920;2024-03-08T08:12:47;23.30;;;17.52;;
3601;SDS011;1815;50.950;6.920;2024-03-08T08:15:13;17.85;;;14.85;;
3601;SDS011;1815;50.950;6.920;2024-03-08T08:17:41;21.23;;;16.67;;
3601;SDS011;1815;50.950;6.920;2024-03-08T08:20:10;17.90;;;14.83;;
3601;SDS011;1815;50.950;6.920;2024-03-08T08:22:38;18.83;;;14.60;;
3601;SDS011;1815;50.950;6.920;2024-03-08T08:25:05;18.00;;;15.00;;
3601;SDS011;1815;50.950;6.920;2024-03-08T08:27:31;13.73;;;11.83;;
3601;SDS011;1815;50.950;6.920;2024-03-08T08:29:57;17.20;;;14.30;;
3601;SDS011;1815;50.950;6.920;2024-03-08T08:32:22;17.33;;;15.50;;
3601;SDS011;1815;50.950;6.920;2024-03-08T08:34:48;19.07;;;16.40;;
3601;SDS011;1815;50.950;6.920;2024-03-08T08:37:14;17.10;;;14.60;;
3601;SDS011;1815;50.950;6.920;2024-03-08T08:39:41;15.97;;;13.60;;
3601;SDS011;1815;50.950;6.920;2024-03-08T08:42:07;17.07;;;15.37;;
3601;SDS011;1815;50.950;6.920;2024-03-08T08:44:34;16.97;;;15.20;;
3601;SDS011;1815;50.950;6.920;2024-03-08T08:47:00;20.87;;;15.77;;
3601;SDS011;1815;50.950;6.920;2024-03-08T08:49:28;15.07;;;13.47;;
3601;SDS011;1815;50.950;6.920;2024-03-08T08:51:56;15.20;;;13.00;;
3601;SDS011;1815;50.950;6.920;2024-03-08T08:54:23;15.17;;;13.67;;
3601;SDS011;1815;50.950;6.920;2024-03-08T08:56:50;14.80;;;13.00;;
3601;SDS011;1815;50.950;6.920;2024-03-08T08:59:16;15.87;;;14.23;;
3601;SDS011;1815;50.950;6.920;2024-03-08T09:01:44;16.00;;;13.80;;
3601;SDS011;1815;50.950;6.920;2024-03-08T09:04:13;15.90;;;14.23;;
3601;SDS011;1815;50.950;6.920;2024-03-08T09:06:42;15.80;;;13.90;;
3601;SDS011;1815;50.950;6.920;2024-03-08T09:09:07;15.47;;;13.73;;
3601;SDS011;1815;50.950;6.920;2024-03-08T09:11:38;19.37;;;14.87;;
3601;SDS011;1815;50.950;6.920;2024-03-08T09:14:07;14.53;;;13.03;;
3601;SDS011;1815;50.950;6.920;2024-03-08T09:16:33;16.07;;;14.47;;
3601;SDS011;1815;50.950;6.920;2024-03-08T09:18:58;14.47;;;13.07;;
3601;SDS011;1815;50.950;6.920;2024-03-08T09:21:24;13.90;;;11.80;;
3601;SDS011;1815;50.950;6.920;2024-03-08T09:23:52;15.23;;;13.33;;
3601;SDS011;1815;50.950;6.920;2024-03-08T09:26:18;15.07;;;13.37;;
3601;SDS011;1815;50.950;6.920;2024-03-08T09:28:44;14.53;;;12.97;;
3601;SDS011;1815;50.950;6.920;2024-03-08T09:31:10;14.43;;;12.93;;
3601;SDS011;1815;50.950;6.920;2024-03-08T09:33:37;13.93;;;12.53;;
3601;SDS011;1815;50.950;6.920;2024-03-08T09:36:04;13.30;;;12.10;;
3601;SDS011;1815;50.950;6.920;2024-03-08T09:38:32;14.60;;;12.37;;
3601;SDS011;1815;50.950;6.920;2024-03-08T09:40:59;14.73;;;13.13;;
3601;SDS011;1815;50.950;6.920;2024-03-08T09:43:27;13.13;;;11.83;;
3601;SDS011;1815;50.950;6.920;2024-03-08T09:45:53;13.40;;;12.00;;
3601;SDS011;1815;50.950;6.920;2024-03-08T09:48:20;13.53;;;12.23;;
3601;SDS011;1815;50.950;6.920;2024-03-08T09:50:47;12.00;;;10.63;;
3601;SDS011;1815;50.950;6.920;2024-03-08T09:53:14;13.67;;;11.30;;
3601;SDS011;1815;50.950;6.920;2024-03-08T09:55:40;11.83;;;10.63;;
3601;SDS011;1815;50.950;6.920;2024-03-08T09:58:10;14.37;;;12.40;;
3601;SDS011;1815;50.950;6.920;2024-03-08T10:00:46;12.40;;;10.63;;
3601;SDS011;1815;50.950;6.920;2024-03-08T10:03:12;12.27;;;11.07;;
3601;SDS011;1815;50.950;6.920;2024-03-08T10:05:40;10.57;;;9.57;;
3601;SDS011;1815;50.950;6.920;2024-03-08T10:08:07;12.87;;;11.47;;
3601;SDS011;1815;50.950;6.920;2024-03-08T10:10:36;9.70;;;8.70;;
3601;SDS011;1815;50.950;6.920;2024-03-08T10:13:08;15.60;;;10.37;;
3601;SDS011;1815;50.950;6.920;2024-03-08T10:15:36;11.80;;;8.57;;
3601;SDS011;1815;50.950;6.920;2024-03-08T10:18:01;9.10;;;8.03;;
3601;SDS011;1815;50.950;6.920;2024-03-08T10:20:28;11.03;;;9.90;;
3601;SDS011;1815;50.950;6.920;2024-03-08T10:23:01;11.80;;;9.20;;
3601;SDS011;1815;50.950;6.920;2024-03-08T10:25:30;11.03;;;9.87;;
3601;SDS011;1815;50.950;6.920;2024-03-08T10:27:56;11.13;;;10.03;;
3601;SDS011;1815;50.950;6.920;2024-03-08T10:30:22;11.60;;;7.77;;
3601;SDS011;1815;50.950;6.920;2024-03-08T10:32:48;9.47;;;8.43;;
3601;SDS011;1815;50.950;6.920;2024-03-08T10:35:14;7.70;;;6.93;;
3601;SDS011;1815;50.950;6.920;2024-03-08T10:40:19;11.70;;;7.80;;
3601;SDS011;1815;50.950;6.920;2024-03-08T10:42:47;8.17;;;6.60;;
3601;SDS011;1815;50.950;6.920;2024-03-08T10:48:48;10.00;;;7.63;;
3601;SDS011;1815;50.950;6.920;2024-03-08T10:51:04;8.77;;;7.87;;
3601;SDS011;1815;50.950;6.920;2024-03-08T10:53:30;7.20;;;6.50;;
3601;SDS011;1815;50.950;6.920;2024-03-08T10:55:56;8.33;;;7.53;;
3601;SDS011;1815;50.950;6.920;2024-03-08T10:58:23;8.53;;;7.37;;
3601;SDS011;1815;50.950;6.920;2024-03-08T11:00:54;9.63;;;6.70;;
3601;SDS011;1815;50.950;6.920;2024-03-08T11:06:06;8.00;;;7.17;;
3601;SDS011;1815;50.950;6.920;2024-03-08T11:08:41;8.13;;;7.10;;
3601;SDS011;1815;50.950;6.920;2024-03-08T11:11:23;9.83;;;7.90;;
3601;SDS011;1815;50.950;6.920;2024-03-08T11:13:53;8.73;;;7.60;;
3601;SDS011;1815;50.950;6.920;2024-03-08T11:16:38;8.50;;;7.60;;
3601;SDS011;1815;50.950;6.920;2024-03-08T11:21:56;8.00;;;7.20;;
3601;SDS011;1815;50.950;6.920;2024-03-08T11:24:23;8.60;;;7.70;;
3601;SDS011;1815;50.950;6.920;2024-03-08T11:26:48;8.40;;;7.60;;
3601;SDS011;1815;50.950;6.920;2024-03-08T11:32:10;10.17;;;7.40;;
3601;SDS011;1815;50.950;6.920;2024-03-08T11:34:37;8.40;;;7.50;;
3601;SDS011;1815;50.950;6.920;2024-03-08T11:37:15;11.00;;;9.40;;
3601;SDS011;1815;50.950;6.920;2024-03-08T11:39:52;10.33;;;8.97;;
3601;SDS011;1815;50.950;6.920;2024-03-08T11:42:24;9.33;;;8.13;;
3601;SDS011;1815;50.950;6.920;2024-03-08T11:44:53;8.47;;;7.20;;
3601;SDS011;1815;50.950;6.920;2024-03-08T11:47:20;7.85;;;7.05;;
3601;SDS011;1815;50.950;6.920;2024-03-08T11:49:46;8.70;;;7.80;;
3601;SDS011;1815;50.950;6.920;2024-03-08T11:52:13;9.90;;;8.60;;
3601;SDS011;1815;50.950;6.920;2024-03-08T11:54:47;10.70;;;8.47;;
3601;SDS011;1815;50.950;6.920;2024-03-08T11:57:19;9.40;;;8.33;;
3601;SDS011;1815;50.950;6.920;2024-03-08T11:59:53;8.10;;;6.70;;
3601;SDS011;1815;50.950;6.920;2024-03-08T12:02:21;11.18;;;9.00;;
3601;SDS011;1815;50.950;6.920;2024-03-08T12:04:55;11.82;;;9.25;;
3601;SDS011;1815;50.950;6.920;2024-03-08T12:07:25;10.10;;;8.67;;
3601;SDS011;1815;50.950;6.920;2024-03-08T12:12:44;9.20;;;7.63;;
3601;SDS011;1815;50.950;6.920;2024-03-08T12:15:16;8.30;;;7.10;;
3601;SDS011;1815;50.950;6.920;2024-03-08T12:17:44;8.83;;;7.37;;
3601;SDS011;1815;50.950;6.920;2024-03-08T12:22:49;8.33;;;7.20;;
3601;SDS011;1815;50.950;6.920;2024-03-08T12:25:18;10.57;;;8.00;;
3601;SDS011;1815;50.950;6.920;2024-03-08T12:27:45;10.50;;;7.33;;
3601;SDS011;1815;50.950;6.920;2024-03-08T12:30:30;8.20;;;7.40;;
3601;SDS011;1815;50.950;6.920;2024-03-08T12:32:59;9.00;;;7.20;;
3601;SDS011;1815;50.950;6.920;2024-03-08T12:35:26;7.90;;;6.30;;
3601;SDS011;1815;50.950;6.920;2024-03-08T12:37:55;8.83;;;7.53;;
3601;SDS011;1815;50.950;6.920;2024-03-08T12:40:25;9.10;;;7.67;;
3601;SDS011;1815;50.950;6.920;2024-03-08T12:42:56;7.40;;;6.67;;
3601;SDS011;1815;50.950;6.920;2024-03-08T12:45:26;8.10;;;6.30;;
3601;SDS011;1815;50.950;6.920;2024-03-08T12:47:52;12.63;;;8.52;;
3601;SDS011;1815;50.950;6.920;2024-03-08T12:50:19;9.90;;;8.23;;
3601;SDS011;1815;50.950;6.920;2024-03-08T12:52:50;12.00;;;8.63;;
3601;SDS011;1815;50.950;6.920;2024-03-08T12:55:18;9.53;;;7.77;;
3601;SDS011;1815;50.950;6.920;2024-03-08T12:57:44;10.73;;;9.63;;
3601;SDS011;1815;50.950;6.920;2024-03-08T13:00:11;10.13;;;8.13;;
3601;SDS011;1815;50.950;6.920;2024-03-08T13:02:50;8.60;;;7.70;;
3601;SDS011;1815;50.950;6.920;2024-03-08T13:05:19;8.57;;;7.23;;
3601;SDS011;1815;50.950;6.920;2024-03-08T13:07:45;9.37;;;7.77;;
3601;SDS011;1815;50.950;6.920;2024-03-08T13:10:12;8.77;;;7.87;;
3601;SDS011;1815;50.950;6.920;2024-03-08T13:12:43;11.57;;;7.90;;
3601;SDS011;1815;50.950;6.920;2024-03-08T13:15:09;8.90;;;7.97;;
3601;SDS011;1815;50.950;6.920;2024-03-08T13:17:45;10.40;;;8.60;;
3601;SDS011;1815;50.950;6.920;2024-03-08T13:20:15;9.13;;;7.50;;
3601;SDS011;1815;50.950;6.920;2024-03-08T13:22:45;11.27;;;8.77;;
3601;SDS011;1815;50.950;6.920;2024-03-08T13:25:12;10.13;;;7.30;;
3601;SDS011;1815;50.950;6.920;2024-03-08T13:27:41;8.30;;;6.40;;
3601;SDS011;1815;50.950;6.920;2024-03-08T13:30:11;10.50;;;7.70;;
3601;SDS011;1815;50.950;6.920;2024-03-08T13:32:41;11.00;;;8.60;;
3601;SDS011;1815;50.950;6.920;2024-03-08T13:35:10;8.57;;;6.87;;
3601;SDS011;1815;50.950;6.920;2024-03-08T13:37:42;8.32;;;7.00;;
3601;SDS011;1815;50.950;6.920;2024-03-08T13:40:09;9.00;;;7.30;;
3601;SDS011;1815;50.950;6.920;2024-03-08T13:42:42;7.00;;;5.77;;
3601;SDS011;1815;50.950;6.920;2024-03-08T13:45:10;11.00;;;8.83;;
3601;SDS011;1815;50.950;6.920;2024-03-08T13:47:37;8.03;;;6.77;;
3601;SDS011;1815;50.950;6.920;2024-03-08T13:50:05;9.50;;;7.17;;
3601;SDS011;1815;50.950;6.920;2024-03-08T13:52:32;8.00;;;6.17;;
3601;SDS011;1815;50.950;6.920;2024-03-08T13:55:00;8.80;;;7.20;;
3601;SDS011;1815;50.950;6.920;2024-03-08T13:57:26;9.32;;;7.03;;
3601;SDS011;1815;50.950;6.920;2024-03-08T13:59:55;11.23;;;6.73;;
3601;SDS011;1815;50.950;6.920;2024-03-08T14:02:20;8.20;;;6.23;;
3601;SDS011;1815;50.950;6.920;2024-03-08T14:04:47;7.00;;;5.73;;
3601;SDS011;1815;50.950;6.920;2024-03-08T14:07:15;7.55;;;6.38;;
3601;SDS011;1815;50.950;6.920;2024-03-08T14:09:41;8.40;;;6.73;;
3601;SDS011;1815;50.950;6.920;2024-03-08T14:12:09;7.77;;;5.83;;
3601;SDS011;1815;50.950;6.920;2024-03-08T14:14:34;11.53;;;6.53;;
3601;SDS011;1815;50.950;6.920;2024-03-08T14:17:00;7.33;;;6.13;;
3601;SDS011;1815;50.950;6.920;2024-03-08T14:19:27;8.40;;;6.70;;
3601;SDS011;1815;50.950;6.920;2024-03-08T14:21:53;7.90;;;6.57;;
3601;SDS011;1815;50.950;6.920;2024-03-08T14:24:19;7.97;;;6.00;;
3601;SDS011;1815;50.950;6.920;2024-03-08T14:26:45;8.40;;;6.33;;
3601;SDS011;1815;50.950;6.920;2024-03-08T14:29:14;7.37;;;6.13;;
3601;SDS011;1815;50.950;6.920;2024-03-08T14:31:40;7.40;;;6.13;;
3601;SDS011;1815;50.950;6.920;2024-03-08T14:34:08;10.40;;;7.93;;
3601;SDS011;1815;50.950;6.920;2024-03-08T14:36:34;8.30;;;6.43;;
3601;SDS011;1815;50.950;6.920;2024-03-08T14:39:00;8.90;;;6.40;;
3601;SDS011;1815;50.950;6.920;2024-03-08T14:41:26;9.30;;;7.50;;
3601;SDS011;1815;50.950;6.920;2024-03-08T14:43:52;9.30;;;6.93;;
3601;SDS011;1815;50.950;6.920;2024-03-08T14:46:18;8.00;;;6.47;;
3601;SDS011;1815;50.950;6.920;2024-03-08T14:48:46;10.50;;;8.10;;
3601;SDS011;1815;50.950;6.920;2024-03-08T14:51:12;10.87;;;7.90;;
3601;SDS011;1815;50.950;6.920;2024-03-08T14:53:42;13.03;;;7.80;;
3601;SDS011;1815;50.950;6.920;2024-03-08T14:56:10;9.80;;;8.07;;
3601;SDS011;1815;50.950;6.920;2024-03-08T14:58:42;6.70;;;5.90;;
3601;SDS011;1815;50.950;6.920;2024-03-08T15:01:09;9.00;;;7.23;;
3601;SDS011;1815;50.950;6.920;2024-03-08T15:03:36;9.13;;;8.23;;
3601;SDS011;1815;50.950;6.920;2024-03-08T15:06:04;7.40;;;6.20;;
3601;SDS011;1815;50.950;6.920;2024-03-08T15:08:34;7.30;;;6.50;;
3601;SDS011;1815;50.950;6.920;2024-03-08T15:11:00;6.50;;;5.40;;
3601;SDS011;1815;50.950;6.920;2024-03-08T15:13:26;10.93;;;8.10;;
3601;SDS011;1815;50.950;6.920;2024-03-08T15:16:06;9.70;;;7.47;;
3601;SDS011;1815;50.950;6.920;2024-03-08T15:18:43;9.00;;;7.70;;